sensor_id;sensor_type;location;lat;lon;timestamp;P1;durP1;ratioP1;P2;durP2;ratioP2
15635;SDS011;7917;50.818;6.972;2022-11-20T00:00:23;24.20;;;14.63;;
15635;SDS011;7917;50.818;6.972;2022-11-20T00:02:50;24.63;;;14.95;;
15635;SDS011;7917;50.818;6.972;2022-11-20T00:05:17;25.92;;;14.85;;
15635;SDS011;7917;50.818;6.972;2022-11-20T00:07:46;24.75;;;15.05;;
15635;SDS011;7917;50.818;6.972;2022-11-20T00:10:15;24.25;;;14.45;;
15635;SDS011;7917;50.818;6.972;2022-11-20T00:12:42;26.25;;;14.85;;
15635;SDS011;7917;50.818;6.972;2022-11-20T00:15:09;28.38;;;15.68;;
15635;SDS011;7917;50.818;6.972;2022-11-20T00:17:36;29.13;;;15.32;;
15635;SDS011;7917;50.818;6.972;2022-11-20T00:20:04;26.23;;;14.95;;
15635;SDS011;7917;50.818;6.972;2022-11-20T00:22:32;25.65;;;14.57;;
15635;SDS011;7917;50.818;6.972;2022-11-20T00:24:59;25.80;;;15.57;;
15635;SDS011;7917;50.818;6.972;2022-11-20T00:27:28;26.92;;;15.13;;
15635;SDS011;7917;50.818;6.972;2022-11-20T00:29:55;28.58;;;15.88;;
15635;SDS011;7917;50.818;6.972;2022-11-20T00:32:23;27.15;;;15.55;;
15635;SDS011;7917;50.818;6.972;2022-11-20T00:34:50;26.00;;;15.18;;
15635;SDS011;7917;50.818;6.972;2022-11-20T00:37:17;27.13;;;15.18;;
15635;SDS011;7917;50.818;6.972;2022-11-20T00:39:44;25.15;;;15.30;;
15635;SDS011;7917;50.818;6.972;2022-11-20T00:42:12;24.05;;;14.65;;
15635;SDS011;7917;50.818;6.972;2022-11-20T00:44:40;24.23;;;14.65;;
15635;SDS011;7917;50.818;6.972;2022-11-20T00:47:07;25.08;;;14.02;;
15635;SDS011;7917;50.818;6.972;2022-11-20T00:49:35;24.38;;;14.70;;
15635;SDS011;7917;50.818;6.972;2022-11-20T00:52:02;26.30;;;14.27;;
15635;SDS011;7917;50.818;6.972;2022-11-20T00:54:29;24.90;;;14.43;;
15635;SDS011;7917;50.818;6.972;2022-11-20T00:56:57;26.30;;;14.45;;
15635;SDS011;7917;50.818;6.972;2022-11-20T00:59:25;27.27;;;14.95;;
15635;SDS011;7917;50.818;6.972;2022-11-20T01:01:53;24.73;;;13.95;;
15635;SDS011;7917;50.818;6.972;2022-11-20T01:04:21;24.75;;;14.43;;
15635;SDS011;7917;50.818;6.972;2022-11-20T01:06:48;25.75;;;15.23;;
15635;SDS011;7917;50.818;6.972;2022-11-20T01:09:15;24.38;;;15.13;;
15635;SDS011;7917;50.818;6.972;2022-11-20T01:11:43;21.95;;;12.90;;
15635;SDS011;7917;50.818;6.972;2022-11-20T01:14:12;24.55;;;15.15;;
15635;SDS011;7917;50.818;6.972;2022-11-20T01:16:41;25.42;;;14.93;;
15635;SDS011;7917;50.818;6.972;2022-11-20T01:19:15;24.50;;;14.95;;
15635;SDS011;7917;50.818;6.972;2022-11-20T01:21:44;24.35;;;14.60;;
15635;SDS011;7917;50.818;6.972;2022-11-20T01:24:14;25.02;;;14.90;;
15635;SDS011;7917;50.818;6.972;2022-11-20T01:26:43;26.90;;;14.50;;
15635;SDS011;7917;50.818;6.972;2022-11-20T01:29:12;23.10;;;13.80;;
15635;SDS011;7917;50.818;6.972;2022-11-20T01:31:41;23.25;;;14.27;;
15635;SDS011;7917;50.818;6.972;2022-11-20T01:34:11;23.77;;;13.57;;
15635;SDS011;7917;50.818;6.972;2022-11-20T01:36:41;20.98;;;14.02;;
15635;SDS011;7917;50.818;6.972;2022-11-20T01:39:10;23.85;;;14.02;;
15635;SDS011;7917;50.818;6.972;2022-11-20T01:41:39;24.75;;;13.60;;
15635;SDS011;7917;50.818;6.972;2022-11-20T01:47:20;25.27;;;14.43;;
15635;SDS011;7917;50.818;6.972;2022-11-20T01:50:00;25.17;;;14.43;;
15635;SDS011;7917;50.818;6.972;2022-11-20T01:52:33;23.70;;;14.27;;
15635;SDS011;7917;50.818;6.972;2022-11-20T01:55:04;20.45;;;12.60;;
15635;SDS011;7917;50.818;6.972;2022-11-20T01:57:35;21.50;;;13.88;;
15635;SDS011;7917;50.818;6.972;2022-11-20T02:00:05;24.40;;;14.18;;
15635;SDS011;7917;50.818;6.972;2022-11-20T02:02:36;21.70;;;13.57;;
15635;SDS011;7917;50.818;6.972;2022-11-20T02:05:09;22.75;;;13.30;;
15635;SDS011;7917;50.818;6.972;2022-11-20T02:07:44;25.17;;;13.07;;
15635;SDS011;7917;50.818;6.972;2022-11-20T02:10:13;23.02;;;13.60;;
15635;SDS011;7917;50.818;6.972;2022-11-20T02:12:41;24.80;;;13.73;;
15635;SDS011;7917;50.818;6.972;2022-11-20T02:15:26;20.63;;;12.93;;
15635;SDS011;7917;50.818;6.972;2022-11-20T02:17:54;23.23;;;13.98;;
15635;SDS011;7917;50.818;6.972;2022-11-20T02:20:22;23.95;;;13.85;;
15635;SDS011;7917;50.818;6.972;2022-11-20T02:22:51;23.30;;;14.07;;
15635;SDS011;7917;50.818;6.972;2022-11-20T02:25:25;26.73;;;15.07;;
15635;SDS011;7917;50.818;6.972;2022-11-20T02:27:54;23.70;;;14.48;;
15635;SDS011;7917;50.818;6.972;2022-11-20T02:30:22;25.77;;;14.15;;
15635;SDS011;7917;50.818;6.972;2022-11-20T02:32:49;23.63;;;13.80;;
15635;SDS011;7917;50.818;6.972;2022-11-20T02:38:07;23.05;;;13.65;;
15635;SDS011;7917;50.818;6.972;2022-11-20T02:40:36;23.52;;;13.88;;
15635;SDS011;7917;50.818;6.972;2022-11-20T02:43:03;22.50;;;14.10;;
15635;SDS011;7917;50.818;6.972;2022-11-20T02:45:31;20.88;;;13.13;;
15635;SDS011;7917;50.818;6.972;2022-11-20T02:47:59;24.98;;;15.48;;
15635;SDS011;7917;50.818;6.972;2022-11-20T02:50:26;24.67;;;14.35;;
15635;SDS011;7917;50.818;6.972;2022-11-20T02:52:53;23.80;;;13.98;;
15635;SDS011;7917;50.818;6.972;2022-11-20T02:55:21;24.13;;;14.48;;
15635;SDS011;7917;50.818;6.972;2022-11-20T02:57:49;23.65;;;14.43;;
15635;SDS011;7917;50.818;6.972;2022-11-20T03:00:17;25.23;;;14.32;;
15635;SDS011;7917;50.818;6.972;2022-11-20T03:02:45;21.40;;;13.00;;
15635;SDS011;7917;50.818;6.972;2022-11-20T03:05:14;25.42;;;14.82;;
15635;SDS011;7917;50.818;6.972;2022-11-20T03:07:42;24.15;;;14.68;;
15635;SDS011;7917;50.818;6.972;2022-11-20T03:10:10;25.33;;;13.98;;
15635;SDS011;7917;50.818;6.972;2022-11-20T03:12:38;25.13;;;14.18;;
15635;SDS011;7917;50.818;6.972;2022-11-20T03:15:08;23.33;;;14.23;;
15635;SDS011;7917;50.818;6.972;2022-11-20T03:17:36;25.08;;;15.13;;
15635;SDS011;7917;50.818;6.972;2022-11-20T03:20:04;23.10;;;15.23;;
15635;SDS011;7917;50.818;6.972;2022-11-20T03:22:32;25.05;;;14.68;;
15635;SDS011;7917;50.818;6.972;2022-11-20T03:24:59;25.00;;;14.30;;
15635;SDS011;7917;50.818;6.972;2022-11-20T03:27:27;23.70;;;14.55;;
15635;SDS011;7917;50.818;6.972;2022-11-20T03:30:01;25.98;;;15.07;;
15635;SDS011;7917;50.818;6.972;2022-11-20T03:32:30;28.00;;;16.25;;
15635;SDS011;7917;50.818;6.972;2022-11-20T03:34:58;26.75;;;15.43;;
15635;SDS011;7917;50.818;6.972;2022-11-20T03:37:25;22.63;;;13.50;;
15635;SDS011;7917;50.818;6.972;2022-11-20T03:39:52;24.17;;;14.75;;
15635;SDS011;7917;50.818;6.972;2022-11-20T03:42:20;24.90;;;15.10;;
15635;SDS011;7917;50.818;6.972;2022-11-20T03:45:05;23.15;;;14.02;;
15635;SDS011;7917;50.818;6.972;2022-11-20T03:47:34;26.58;;;15.30;;
15635;SDS011;7917;50.818;6.972;2022-11-20T03:50:02;27.10;;;14.63;;
15635;SDS011;7917;50.818;6.972;2022-11-20T03:52:29;29.73;;;15.32;;
15635;SDS011;7917;50.818;6.972;2022-11-20T03:54:57;26.17;;;15.82;;
15635;SDS011;7917;50.818;6.972;2022-11-20T03:57:24;26.38;;;15.55;;
15635;SDS011;7917;50.818;6.972;2022-11-20T03:59:51;31.15;;;15.77;;
15635;SDS011;7917;50.818;6.972;2022-11-20T04:02:19;27.55;;;15.65;;
15635;SDS011;7917;50.818;6.972;2022-11-20T04:04:48;26.45;;;15.15;;
15635;SDS011;7917;50.818;6.972;2022-11-20T04:07:15;24.45;;;14.88;;
15635;SDS011;7917;50.818;6.972;2022-11-20T04:09:43;28.05;;;15.98;;
15635;SDS011;7917;50.818;6.972;2022-11-20T04:12:10;30.50;;;16.13;;
15635;SDS011;7917;50.818;6.972;2022-11-20T04:14:37;29.13;;;16.08;;
15635;SDS011;7917;50.818;6.972;2022-11-20T04:17:04;28.58;;;15.75;;
15635;SDS011;7917;50.818;6.972;2022-11-20T04:19:31;28.20;;;16.67;;
15635;SDS011;7917;50.818;6.972;2022-11-20T04:22:00;28.17;;;16.50;;
15635;SDS011;7917;50.818;6.972;2022-11-20T04:24:29;30.00;;;17.30;;
15635;SDS011;7917;50.818;6.972;2022-11-20T04:26:56;29.25;;;17.48;;
15635;SDS011;7917;50.818;6.972;2022-11-20T04:29:23;31.05;;;17.08;;
15635;SDS011;7917;50.818;6.972;2022-11-20T04:31:51;30.45;;;17.80;;
15635;SDS011;7917;50.818;6.972;2022-11-20T04:34:18;29.73;;;16.80;;
15635;SDS011;7917;50.818;6.972;2022-11-20T04:36:45;34.13;;;16.98;;
15635;SDS011;7917;50.818;6.972;2022-11-20T04:39:14;31.77;;;17.58;;
15635;SDS011;7917;50.818;6.972;2022-11-20T04:41:42;35.67;;;18.45;;
15635;SDS011;7917;50.818;6.972;2022-11-20T04:44:09;32.17;;;17.27;;
15635;SDS011;7917;50.818;6.972;2022-11-20T04:46:38;32.00;;;16.67;;
15635;SDS011;7917;50.818;6.972;2022-11-20T04:49:06;26.90;;;16.17;;
15635;SDS011;7917;50.818;6.972;2022-11-20T04:51:34;30.95;;;16.90;;
15635;SDS011;7917;50.818;6.972;2022-11-20T04:54:01;29.15;;;16.83;;
15635;SDS011;7917;50.818;6.972;2022-11-20T04:56:30;33.35;;;17.33;;
15635;SDS011;7917;50.818;6.972;2022-11-20T04:58:59;29.52;;;16.33;;
15635;SDS011;7917;50.818;6.972;2022-11-20T05:01:27;30.27;;;16.40;;
15635;SDS011;7917;50.818;6.972;2022-11-20T05:03:54;31.17;;;17.60;;
15635;SDS011;7917;50.818;6.972;2022-11-20T05:06:22;37.35;;;18.75;;
15635;SDS011;7917;50.818;6.972;2022-11-20T05:08:49;30.95;;;17.48;;
15635;SDS011;7917;50.818;6.972;2022-11-20T05:11:17;29.23;;;16.98;;
15635;SDS011;7917;50.818;6.972;2022-11-20T05:13:47;34.67;;;18.02;;
15635;SDS011;7917;50.818;6.972;2022-11-20T05:16:15;34.00;;;17.17;;
15635;SDS011;7917;50.818;6.972;2022-11-20T05:18:44;34.05;;;17.38;;
15635;SDS011;7917;50.818;6.972;2022-11-20T05:21:11;33.28;;;17.77;;
15635;SDS011;7917;50.818;6.972;2022-11-20T05:23:39;31.85;;;17.90;;
15635;SDS011;7917;50.818;6.972;2022-11-20T05:26:13;28.20;;;15.60;;
15635;SDS011;7917;50.818;6.972;2022-11-20T05:28:42;34.72;;;17.98;;
15635;SDS011;7917;50.818;6.972;2022-11-20T05:31:12;34.13;;;17.55;;
15635;SDS011;7917;50.818;6.972;2022-11-20T05:33:41;31.42;;;17.05;;
15635;SDS011;7917;50.818;6.972;2022-11-20T05:36:09;31.38;;;16.98;;
15635;SDS011;7917;50.818;6.972;2022-11-20T05:38:37;33.38;;;17.20;;
15635;SDS011;7917;50.818;6.972;2022-11-20T05:41:08;32.75;;;17.17;;
15635;SDS011;7917;50.818;6.972;2022-11-20T05:43:37;32.90;;;17.58;;
15635;SDS011;7917;50.818;6.972;2022-11-20T05:46:07;30.27;;;16.20;;
15635;SDS011;7917;50.818;6.972;2022-11-20T05:48:37;29.42;;;16.90;;
15635;SDS011;7917;50.818;6.972;2022-11-20T05:51:07;29.35;;;16.42;;
15635;SDS011;7917;50.818;6.972;2022-11-20T05:53:35;32.63;;;16.75;;
15635;SDS011;7917;50.818;6.972;2022-11-20T05:56:05;32.00;;;16.30;;
15635;SDS011;7917;50.818;6.972;2022-11-20T05:58:35;29.42;;;16.90;;
15635;SDS011;7917;50.818;6.972;2022-11-20T06:01:06;26.17;;;15.75;;
15635;SDS011;7917;50.818;6.972;2022-11-20T06:03:38;29.23;;;16.63;;
15635;SDS011;7917;50.818;6.972;2022-11-20T06:06:07;29.33;;;16.20;;
15635;SDS011;7917;50.818;6.972;2022-11-20T06:08:35;28.08;;;16.42;;
15635;SDS011;7917;50.818;6.972;2022-11-20T06:11:03;30.05;;;16.40;;
15635;SDS011;7917;50.818;6.972;2022-11-20T06:13:31;28.27;;;16.20;;
15635;SDS011;7917;50.818;6.972;2022-11-20T06:15:59;31.13;;;17.48;;
15635;SDS011;7917;50.818;6.972;2022-11-20T06:18:27;33.10;;;17.73;;
15635;SDS011;7917;50.818;6.972;2022-11-20T06:21:03;30.27;;;16.90;;
15635;SDS011;7917;50.818;6.972;2022-11-20T06:23:31;31.60;;;16.27;;
15635;SDS011;7917;50.818;6.972;2022-11-20T06:26:00;29.95;;;16.13;;
15635;SDS011;7917;50.818;6.972;2022-11-20T06:28:29;30.25;;;16.02;;
15635;SDS011;7917;50.818;6.972;2022-11-20T06:30:57;27.50;;;15.50;;
15635;SDS011;7917;50.818;6.972;2022-11-20T06:33:24;30.25;;;17.63;;
15635;SDS011;7917;50.818;6.972;2022-11-20T06:35:51;26.33;;;16.25;;
15635;SDS011;7917;50.818;6.972;2022-11-20T06:38:20;26.05;;;15.88;;
15635;SDS011;7917;50.818;6.972;2022-11-20T06:40:47;28.15;;;16.40;;
15635;SDS011;7917;50.818;6.972;2022-11-20T06:43:14;30.25;;;15.55;;
15635;SDS011;7917;50.818;6.972;2022-11-20T06:45:41;30.65;;;16.58;;
15635;SDS011;7917;50.818;6.972;2022-11-20T06:48:09;28.50;;;16.45;;
15635;SDS011;7917;50.818;6.972;2022-11-20T06:50:36;29.23;;;16.48;;
15635;SDS011;7917;50.818;6.972;2022-11-20T06:53:04;31.98;;;16.75;;
15635;SDS011;7917;50.818;6.972;2022-11-20T06:55:33;27.92;;;15.77;;
15635;SDS011;7917;50.818;6.972;2022-11-20T06:58:00;29.73;;;16.35;;
15635;SDS011;7917;50.818;6.972;2022-11-20T07:00:27;28.23;;;15.82;;
15635;SDS011;7917;50.818;6.972;2022-11-20T07:02:56;25.17;;;15.30;;
15635;SDS011;7917;50.818;6.972;2022-11-20T07:05:24;28.83;;;15.32;;
15635;SDS011;7917;50.818;6.972;2022-11-20T07:07:51;27.20;;;15.15;;
15635;SDS011;7917;50.818;6.972;2022-11-20T07:10:18;30.38;;;16.58;;
15635;SDS011;7917;50.818;6.972;2022-11-20T07:12:50;33.70;;;16.60;;
15635;SDS011;7917;50.818;6.972;2022-11-20T07:15:20;26.92;;;15.88;;
15635;SDS011;7917;50.818;6.972;2022-11-20T07:17:48;26.50;;;16.42;;
15635;SDS011;7917;50.818;6.972;2022-11-20T07:20:15;32.10;;;16.08;;
15635;SDS011;7917;50.818;6.972;2022-11-20T07:22:42;29.08;;;16.13;;
15635;SDS011;7917;50.818;6.972;2022-11-20T07:25:10;26.63;;;15.65;;
15635;SDS011;7917;50.818;6.972;2022-11-20T07:27:37;29.10;;;15.70;;
15635;SDS011;7917;50.818;6.972;2022-11-20T07:30:06;28.95;;;15.90;;
15635;SDS011;7917;50.818;6.972;2022-11-20T07:32:34;24.50;;;14.77;;
15635;SDS011;7917;50.818;6.972;2022-11-20T07:35:01;29.50;;;16.77;;
15635;SDS011;7917;50.818;6.972;2022-11-20T07:37:29;25.30;;;15.20;;
15635;SDS011;7917;50.818;6.972;2022-11-20T07:39:56;28.45;;;16.77;;
15635;SDS011;7917;50.818;6.972;2022-11-20T07:42:26;27.35;;;16.42;;
15635;SDS011;7917;50.818;6.972;2022-11-20T07:44:54;30.13;;;17.10;;
15635;SDS011;7917;50.818;6.972;2022-11-20T07:47:22;29.25;;;16.95;;
15635;SDS011;7917;50.818;6.972;2022-11-20T07:49:50;28.52;;;16.45;;
15635;SDS011;7917;50.818;6.972;2022-11-20T07:52:23;30.33;;;17.17;;
15635;SDS011;7917;50.818;6.972;2022-11-20T07:54:50;27.80;;;16.40;;
15635;SDS011;7917;50.818;6.972;2022-11-20T07:57:17;31.27;;;16.75;;
15635;SDS011;7917;50.818;6.972;2022-11-20T07:59:44;28.13;;;16.30;;
15635;SDS011;7917;50.818;6.972;2022-11-20T08:02:11;28.83;;;16.83;;
15635;SDS011;7917;50.818;6.972;2022-11-20T08:04:41;29.50;;;16.23;;
15635;SDS011;7917;50.818;6.972;2022-11-20T08:07:08;28.27;;;15.35;;
15635;SDS011;7917;50.818;6.972;2022-11-20T08:09:35;27.02;;;17.13;;
15635;SDS011;7917;50.818;6.972;2022-11-20T08:12:02;30.95;;;17.77;;
15635;SDS011;7917;50.818;6.972;2022-11-20T08:14:55;27.73;;;16.52;;
15635;SDS011;7917;50.818;6.972;2022-11-20T08:17:24;27.83;;;16.13;;
15635;SDS011;7917;50.818;6.972;2022-11-20T08:19:52;29.17;;;15.80;;
15635;SDS011;7917;50.818;6.972;2022-11-20T08:22:20;30.00;;;16.23;;
15635;SDS011;7917;50.818;6.972;2022-11-20T08:24:47;27.80;;;17.15;;
15635;SDS011;7917;50.818;6.972;2022-11-20T08:27:14;31.58;;;16.95;;
15635;SDS011;7917;50.818;6.972;2022-11-20T08:29:41;27.55;;;16.70;;
15635;SDS011;7917;50.818;6.972;2022-11-20T08:32:09;30.02;;;16.85;;
15635;SDS011;7917;50.818;6.972;2022-11-20T08:34:36;28.75;;;16.50;;
15635;SDS011;7917;50.818;6.972;2022-11-20T08:37:05;29.30;;;16.45;;
15635;SDS011;7917;50.818;6.972;2022-11-20T08:39:34;32.30;;;18.45;;
15635;SDS011;7917;50.818;6.972;2022-11-20T08:42:01;29.88;;;17.58;;
15635;SDS011;7917;50.818;6.972;2022-11-20T08:44:29;28.63;;;18.00;;
15635;SDS011;7917;50.818;6.972;2022-11-20T08:46:56;30.35;;;16.92;;
15635;SDS011;7917;50.818;6.972;2022-11-20T08:49:23;29.17;;;17.08;;
15635;SDS011;7917;50.818;6.972;2022-11-20T08:51:51;31.02;;;17.58;;
15635;SDS011;7917;50.818;6.972;2022-11-20T08:54:21;29.90;;;17.95;;
15635;SDS011;7917;50.818;6.972;2022-11-20T08:56:48;26.60;;;15.18;;
15635;SDS011;7917;50.818;6.972;2022-11-20T08:59:15;32.63;;;16.55;;
15635;SDS011;7917;50.818;6.972;2022-11-20T09:01:43;31.27;;;18.45;;
15635;SDS011;7917;50.818;6.972;2022-11-20T09:04:10;30.25;;;17.52;;
15635;SDS011;7917;50.818;6.972;2022-11-20T09:06:39;34.28;;;18.08;;
15635;SDS011;7917;50.818;6.972;2022-11-20T09:09:07;33.95;;;19.23;;
15635;SDS011;7917;50.818;6.972;2022-11-20T09:11:37;35.05;;;18.60;;
15635;SDS011;7917;50.818;6.972;2022-11-20T09:14:04;29.85;;;17.50;;
15635;SDS011;7917;50.818;6.972;2022-11-20T09:16:33;30.92;;;19.05;;
15635;SDS011;7917;50.818;6.972;2022-11-20T09:19:00;28.83;;;17.65;;
15635;SDS011;7917;50.818;6.972;2022-11-20T09:21:27;33.97;;;18.90;;
15635;SDS011;7917;50.818;6.972;2022-11-20T09:23:55;32.22;;;17.48;;
15635;SDS011;7917;50.818;6.972;2022-11-20T09:26:22;31.90;;;18.38;;
15635;SDS011;7917;50.818;6.972;2022-11-20T09:28:50;32.17;;;18.25;;
15635;SDS011;7917;50.818;6.972;2022-11-20T09:31:19;27.95;;;17.20;;
15635;SDS011;7917;50.818;6.972;2022-11-20T09:33:50;32.42;;;18.70;;
15635;SDS011;7917;50.818;6.972;2022-11-20T09:36:18;30.30;;;18.42;;
15635;SDS011;7917;50.818;6.972;2022-11-20T09:38:46;31.20;;;18.33;;
15635;SDS011;7917;50.818;6.972;2022-11-20T09:41:19;32.10;;;18.25;;
15635;SDS011;7917;50.818;6.972;2022-11-20T09:44:05;33.78;;;18.45;;
15635;SDS011;7917;50.818;6.972;2022-11-20T09:46:43;35.03;;;18.63;;
15635;SDS011;7917;50.818;6.972;2022-11-20T09:49:19;32.72;;;18.15;;
15635;SDS011;7917;50.818;6.972;2022-11-20T09:51:53;31.65;;;18.65;;
15635;SDS011;7917;50.818;6.972;2022-11-20T09:54:26;29.25;;;17.08;;
15635;SDS011;7917;50.818;6.972;2022-11-20T09:56:58;29.88;;;17.80;;
15635;SDS011;7917;50.818;6.972;2022-11-20T09:59:38;28.80;;;16.40;;
15635;SDS011;7917;50.818;6.972;2022-11-20T10:02:13;26.88;;;15.80;;
15635;SDS011;7917;50.818;6.972;2022-11-20T10:04:44;30.52;;;17.73;;
15635;SDS011;7917;50.818;6.972;2022-11-20T10:07:19;27.80;;;16.17;;
15635;SDS011;7917;50.818;6.972;2022-11-20T10:09:52;27.73;;;17.08;;
15635;SDS011;7917;50.818;6.972;2022-11-20T10:12:23;28.90;;;17.40;;
15635;SDS011;7917;50.818;6.972;2022-11-20T10:15:03;27.27;;;17.17;;
15635;SDS011;7917;50.818;6.972;2022-11-20T10:17:46;30.58;;;19.00;;
15635;SDS011;7917;50.818;6.972;2022-11-20T10:20:40;34.05;;;18.35;;
15635;SDS011;7917;50.818;6.972;2022-11-20T10:23:18;33.22;;;18.95;;
15635;SDS011;7917;50.818;6.972;2022-11-20T10:25:56;31.65;;;18.45;;
15635;SDS011;7917;50.818;6.972;2022-11-20T10:28:30;31.02;;;18.38;;
15635;SDS011;7917;50.818;6.972;2022-11-20T10:31:10;30.45;;;17.13;;
15635;SDS011;7917;50.818;6.972;2022-11-20T10:33:51;27.95;;;16.98;;
15635;SDS011;7917;50.818;6.972;2022-11-20T10:36:22;27.63;;;16.98;;
15635;SDS011;7917;50.818;6.972;2022-11-20T10:38:54;29.90;;;16.70;;
15635;SDS011;7917;50.818;6.972;2022-11-20T10:41:26;26.17;;;16.50;;
15635;SDS011;7917;50.818;6.972;2022-11-20T10:44:00;24.60;;;14.85;;
15635;SDS011;7917;50.818;6.972;2022-11-20T10:46:34;28.23;;;16.77;;
15635;SDS011;7917;50.818;6.972;2022-11-20T10:49:11;27.02;;;16.85;;
15635;SDS011;7917;50.818;6.972;2022-11-20T10:51:44;26.70;;;16.60;;
15635;SDS011;7917;50.818;6.972;2022-11-20T10:54:24;29.33;;;16.60;;
15635;SDS011;7917;50.818;6.972;2022-11-20T10:56:59;25.45;;;14.68;;
15635;SDS011;7917;50.818;6.972;2022-11-20T10:59:49;23.58;;;14.02;;
15635;SDS011;7917;50.818;6.972;2022-11-20T11:02:32;26.15;;;14.35;;
15635;SDS011;7917;50.818;6.972;2022-11-20T11:05:05;26.25;;;14.75;;
15635;SDS011;7917;50.818;6.972;2022-11-20T11:07:43;25.20;;;14.63;;
15635;SDS011;7917;50.818;6.972;2022-11-20T11:10:14;23.38;;;14.07;;
15635;SDS011;7917;50.818;6.972;2022-11-20T11:12:44;23.67;;;14.40;;
15635;SDS011;7917;50.818;6.972;2022-11-20T11:15:14;23.08;;;13.68;;
15635;SDS011;7917;50.818;6.972;2022-11-20T11:17:53;25.27;;;13.93;;
15635;SDS011;7917;50.818;6.972;2022-11-20T11:20:21;26.42;;;15.18;;
15635;SDS011;7917;50.818;6.972;2022-11-20T11:22:50;26.92;;;16.58;;
15635;SDS011;7917;50.818;6.972;2022-11-20T11:25:25;25.75;;;15.38;;
15635;SDS011;7917;50.818;6.972;2022-11-20T11:27:57;24.67;;;14.27;;
15635;SDS011;7917;50.818;6.972;2022-11-20T11:30:26;24.05;;;14.75;;
15635;SDS011;7917;50.818;6.972;2022-11-20T11:33:08;22.80;;;14.45;;
15635;SDS011;7917;50.818;6.972;2022-11-20T11:35:39;24.17;;;14.75;;
15635;SDS011;7917;50.818;6.972;2022-11-20T11:38:12;28.13;;;16.00;;
15635;SDS011;7917;50.818;6.972;2022-11-20T11:40:43;24.83;;;15.15;;
15635;SDS011;7917;50.818;6.972;2022-11-20T11:43:16;24.08;;;15.65;;
15635;SDS011;7917;50.818;6.972;2022-11-20T11:46:04;25.52;;;16.45;;
15635;SDS011;7917;50.818;6.972;2022-11-20T11:48:56;26.15;;;15.75;;
15635;SDS011;7917;50.818;6.972;2022-11-20T11:51:25;25.55;;;15.07;;
15635;SDS011;7917;50.818;6.972;2022-11-20T11:53:57;26.27;;;16.23;;
15635;SDS011;7917;50.818;6.972;2022-11-20T11:56:27;25.60;;;15.27;;
15635;SDS011;7917;50.818;6.972;2022-11-20T11:58:55;29.27;;;16.33;;
15635;SDS011;7917;50.818;6.972;2022-11-20T12:01:26;28.45;;;15.18;;
15635;SDS011;7917;50.818;6.972;2022-11-20T12:04:02;25.83;;;15.10;;
15635;SDS011;7917;50.818;6.972;2022-11-20T12:06:36;26.40;;;15.60;;
15635;SDS011;7917;50.818;6.972;2022-11-20T12:09:08;25.70;;;15.32;;
15635;SDS011;7917;50.818;6.972;2022-11-20T12:11:37;26.83;;;15.43;;
15635;SDS011;7917;50.818;6.972;2022-11-20T12:14:16;24.42;;;15.40;;
15635;SDS011;7917;50.818;6.972;2022-11-20T12:16:49;30.23;;;16.58;;
15635;SDS011;7917;50.818;6.972;2022-11-20T12:19:19;26.38;;;15.57;;
15635;SDS011;7917;50.818;6.972;2022-11-20T12:21:54;27.67;;;16.17;;
15635;SDS011;7917;50.818;6.972;2022-11-20T12:24:37;29.10;;;16.45;;
15635;SDS011;7917;50.818;6.972;2022-11-20T12:30:19;27.33;;;16.55;;
15635;SDS011;7917;50.818;6.972;2022-11-20T12:32:53;32.63;;;17.60;;
15635;SDS011;7917;50.818;6.972;2022-11-20T12:35:47;28.83;;;16.10;;
15635;SDS011;7917;50.818;6.972;2022-11-20T12:38:39;27.27;;;15.98;;
15635;SDS011;7917;50.818;6.972;2022-11-20T12:41:22;26.60;;;16.40;;
15635;SDS011;7917;50.818;6.972;2022-11-20T12:44:19;23.92;;;15.38;;
15635;SDS011;7917;50.818;6.972;2022-11-20T12:47:22;25.40;;;14.95;;
15635;SDS011;7917;50.818;6.972;2022-11-20T12:49:56;26.13;;;14.93;;
15635;SDS011;7917;50.818;6.972;2022-11-20T12:55:23;26.52;;;15.82;;
15635;SDS011;7917;50.818;6.972;2022-11-20T12:58:00;28.20;;;15.98;;
15635;SDS011;7917;50.818;6.972;2022-11-20T13:00:32;27.08;;;16.17;;
15635;SDS011;7917;50.818;6.972;2022-11-20T13:05:59;27.40;;;15.80;;
15635;SDS011;7917;50.818;6.972;2022-11-20T13:08:34;26.02;;;15.65;;
15635;SDS011;7917;50.818;6.972;2022-11-20T13:11:04;27.73;;;15.85;;
15635;SDS011;7917;50.818;6.972;2022-11-20T13:13:41;27.13;;;15.70;;
15635;SDS011;7917;50.818;6.972;2022-11-20T13:16:20;29.10;;;16.15;;
15635;SDS011;7917;50.818;6.972;2022-11-20T13:18:53;24.33;;;14.65;;
15635;SDS011;7917;50.818;6.972;2022-11-20T13:21:22;22.65;;;14.43;;
15635;SDS011;7917;50.818;6.972;2022-11-20T13:24:05;26.92;;;15.32;;
15635;SDS011;7917;50.818;6.972;2022-11-20T13:26:33;27.13;;;14.77;;
15635;SDS011;7917;50.818;6.972;2022-11-20T13:29:02;23.70;;;15.07;;
15635;SDS011;7917;50.818;6.972;2022-11-20T13:31:36;24.60;;;14.77;;
15635;SDS011;7917;50.818;6.972;2022-11-20T13:34:10;25.42;;;15.57;;
15635;SDS011;7917;50.818;6.972;2022-11-20T13:36:48;25.95;;;15.00;;
15635;SDS011;7917;50.818;6.972;2022-11-20T13:39:24;26.45;;;15.85;;
15635;SDS011;7917;50.818;6.972;2022-11-20T13:41:56;23.42;;;15.13;;
15635;SDS011;7917;50.818;6.972;2022-11-20T13:44:25;27.40;;;15.38;;
15635;SDS011;7917;50.818;6.972;2022-11-20T13:46:56;28.10;;;14.88;;
15635;SDS011;7917;50.818;6.972;2022-11-20T13:49:25;27.15;;;16.67;;
15635;SDS011;7917;50.818;6.972;2022-11-20T13:51:58;25.98;;;14.48;;
15635;SDS011;7917;50.818;6.972;2022-11-20T14:00:45;27.10;;;15.02;;
15635;SDS011;7917;50.818;6.972;2022-11-20T14:03:17;26.83;;;15.48;;
15635;SDS011;7917;50.818;6.972;2022-11-20T14:05:49;26.85;;;14.63;;
15635;SDS011;7917;50.818;6.972;2022-11-20T14:08:27;27.38;;;16.08;;
15635;SDS011;7917;50.818;6.972;2022-11-20T14:11:11;23.88;;;14.57;;
15635;SDS011;7917;50.818;6.972;2022-11-20T14:13:51;26.90;;;15.60;;
15635;SDS011;7917;50.818;6.972;2022-11-20T14:16:20;23.55;;;14.05;;
15635;SDS011;7917;50.818;6.972;2022-11-20T14:18:48;24.73;;;14.88;;
15635;SDS011;7917;50.818;6.972;2022-11-20T14:21:21;24.67;;;15.48;;
15635;SDS011;7917;50.818;6.972;2022-11-20T14:23:51;24.98;;;15.60;;
15635;SDS011;7917;50.818;6.972;2022-11-20T14:26:21;27.60;;;15.20;;
15635;SDS011;7917;50.818;6.972;2022-11-20T14:28:49;22.42;;;14.50;;
15635;SDS011;7917;50.818;6.972;2022-11-20T14:31:22;20.75;;;13.77;;
15635;SDS011;7917;50.818;6.972;2022-11-20T14:33:52;23.80;;;14.15;;
15635;SDS011;7917;50.818;6.972;2022-11-20T14:36:23;23.58;;;14.15;;
15635;SDS011;7917;50.818;6.972;2022-11-20T14:38:52;24.52;;;14.45;;
15635;SDS011;7917;50.818;6.972;2022-11-20T14:41:22;25.30;;;15.00;;
15635;SDS011;7917;50.818;6.972;2022-11-20T14:43:51;26.40;;;15.25;;
15635;SDS011;7917;50.818;6.972;2022-11-20T14:46:22;22.63;;;15.27;;
15635;SDS011;7917;50.818;6.972;2022-11-20T14:48:50;21.85;;;14.43;;
15635;SDS011;7917;50.818;6.972;2022-11-20T14:51:28;24.45;;;14.73;;
15635;SDS011;7917;50.818;6.972;2022-11-20T14:54:07;22.42;;;14.13;;
15635;SDS011;7917;50.818;6.972;2022-11-20T14:56:37;26.63;;;15.38;;
15635;SDS011;7917;50.818;6.972;2022-11-20T14:59:05;22.90;;;14.27;;
15635;SDS011;7917;50.818;6.972;2022-11-20T15:01:32;22.17;;;14.18;;
15635;SDS011;7917;50.818;6.972;2022-11-20T15:04:01;24.67;;;15.57;;
15635;SDS011;7917;50.818;6.972;2022-11-20T15:06:31;21.85;;;13.98;;
15635;SDS011;7917;50.818;6.972;2022-11-20T15:08:58;24.88;;;14.90;;
15635;SDS011;7917;50.818;6.972;2022-11-20T15:11:28;24.38;;;14.38;;
15635;SDS011;7917;50.818;6.972;2022-11-20T15:13:59;23.88;;;15.10;;